Calumet, Minnesota
Current Conditions -  °F | °C
As of 11:35 PM on Tuesday 25 Nov 2014 (Local Time) from KGPZ Reporting Station
Overcast Overcast  
Wind Chill:   Ceiling: 2700
Heat Index: 18°   Visibility: 10mi
Dew Point:   Wind: 6mph
Humidity: 68%   Direction: 180°S
Pressure: 30.04"   Gusts: NA
Location:  47.32°N, 93.28°W
Report Text: KGPZ 260535Z AUTO 18005KT 10SM OVC027 M08/M13 A3004 RMK AO1
Loading
Personal Weather Stations






























Interactive Weather Map New forecast layout! Learn more

10-Day Weather Forecast

Advertisements
Track Severe Weather on mobile